Wetterdaten: Woche 02.11.15 - 08.11.15 (KW45)
Datum Zeit Temperatur Luftfeuchte Luftdruck Niederschlag Windrichtung Sonnenschein Solar Wind
02.11.2015 00:00 5,3 C 98 % 1028,3 hPa 0,0 l/m N-NO 0,00 h 0 W/m 1,7 km/h (1 Bft)
02.11.2015 01:00 5,1 C 99 % 1028,2 hPa 0,0 l/m N 0,00 h 0 W/m 1,6 km/h (1 Bft)
02.11.2015 02:00 4,9 C 99 % 1028,2 hPa 0,2 l/m N-NO 0,00 h 0 W/m 2,3 km/h (1 Bft)
02.11.2015 03:00 4,5 C 99 % 1027,9 hPa 0,0 l/m N 0,00 h 0 W/m 0,5 km/h (0 Bft)
02.11.2015 04:00 4,3 C 99 % 1027,7 hPa 0,0 l/m N-NO 0,00 h 0 W/m 1,2 km/h (1 Bft)
02.11.2015 05:00 4,1 C 99 % 1027,7 hPa 0,0 l/m N 0,00 h 0 W/m 2,4 km/h (1 Bft)
02.11.2015 06:00 3,9 C 99 % 1027,8 hPa 0,0 l/m N-NO 0,00 h 0 W/m 2,7 km/h (1 Bft)
02.11.2015 07:00 3,5 C 99 % 1027,9 hPa 0,0 l/m N-NO 0,00 h 10 W/m 3,1 km/h (1 Bft)
02.11.2015 08:00 3,5 C 99 % 1028,2 hPa 0,0 l/m N-NO 0,00 h 28 W/m 1,7 km/h (1 Bft)
02.11.2015 09:00 3,4 C 99 % 1028,1 hPa 0,0 l/m N-NO 0,00 h 74 W/m 1,1 km/h (0 Bft)
02.11.2015 10:00 3,8 C 99 % 1028,0 hPa 0,0 l/m N 0,00 h 102 W/m 0,1 km/h (0 Bft)
02.11.2015 11:00 4,7 C 100 % 1027,9 hPa 0,0 l/m N-NO 0,00 h 200 W/m 2,0 km/h (1 Bft)
02.11.2015 12:00 5,5 C 100 % 1027,5 hPa 0,0 l/m N-NO 0,58 h 349 W/m 2,5 km/h (1 Bft)
02.11.2015 13:00 7,0 C 100 % 1026,8 hPa 0,0 l/m N-NO 1,00 h 436 W/m 2,9 km/h (1 Bft)
02.11.2015 14:00 9,0 C 98 % 1026,4 hPa 0,0 l/m N-NO 1,00 h 347 W/m 4,5 km/h (1 Bft)
02.11.2015 15:00 11,2 C 84 % 1026,2 hPa 0,0 l/m N 1,00 h 204 W/m 2,1 km/h (1 Bft)
02.11.2015 16:00 10,1 C 83 % 1026,3 hPa 0,0 l/m N 0,42 h 39 W/m 0,3 km/h (0 Bft)
02.11.2015 17:00 7,9 C 85 % 1026,3 hPa 0,0 l/m N 0,00 h 5 W/m 0,0 km/h (0 Bft)
02.11.2015 18:00 6,0 C 88 % 1026,2 hPa 0,0 l/m N 0,00 h 0 W/m 0,0 km/h (0 Bft)
02.11.2015 19:00 4,5 C 90 % 1025,9 hPa 0,0 l/m N 0,00 h 0 W/m 0,0 km/h (0 Bft)
02.11.2015 20:00 3,7 C 92 % 1025,5 hPa 0,0 l/m N 0,00 h 0 W/m 0,0 km/h (0 Bft)
02.11.2015 21:00 3,2 C 94 % 1025,4 hPa 0,0 l/m N 0,00 h 0 W/m 0,0 km/h (0 Bft)
02.11.2015 22:00 2,9 C 95 % 1025,1 hPa 0,0 l/m N 0,00 h 0 W/m 0,3 km/h (0 Bft)
02.11.2015 23:00 2,5 C 96 % 1024,7 hPa 0,0 l/m N 0,00 h 0 W/m 2,3 km/h (1 Bft)
03.11.2015 00:00 1,9 C 96 % 1024,6 hPa 0,0 l/m N 0,00 h 0 W/m 2,5 km/h (1 Bft)
03.11.2015 01:00 1,6 C 97 % 1024,3 hPa 0,0 l/m N 0,00 h 0 W/m 0,3 km/h (0 Bft)
03.11.2015 02:00 1,6 C 97 % 1024,0 hPa 0,0 l/m N 0,00 h 0 W/m 0,0 km/h (0 Bft)
03.11.2015 03:00 1,5 C 98 % 1023,6 hPa 0,2 l/m N 0,00 h 0 W/m 0,0 km/h (0 Bft)
03.11.2015 04:00 1,3 C 98 % 1023,1 hPa 0,0 l/m N 0,00 h 0 W/m 2,1 km/h (1 Bft)
03.11.2015 05:00 0,9 C 98 % 1022,9 hPa 0,0 l/m N 0,00 h 0 W/m 2,1 km/h (1 Bft)
03.11.2015 06:00 0,6 C 98 % 1022,7 hPa 0,0 l/m N 0,00 h 0 W/m 0,0 km/h (0 Bft)
03.11.2015 07:00 0,4 C 98 % 1022,8 hPa 0,0 l/m N 0,00 h 12 W/m 0,0 km/h (0 Bft)
03.11.2015 08:00 0,2 C 98 % 1022,6 hPa 0,0 l/m N 0,00 h 54 W/m 0,0 km/h (0 Bft)
03.11.2015 09:00 0,9 C 99 % 1022,3 hPa 0,0 l/m N 0,25 h 159 W/m 2,0 km/h (1 Bft)
03.11.2015 10:00 2,3 C 99 % 1021,7 hPa 0,0 l/m N 0,83 h 324 W/m 3,5 km/h (1 Bft)
03.11.2015 11:00 4,7 C 100 % 1020,9 hPa 0,0 l/m N 0,83 h 407 W/m 4,4 km/h (1 Bft)
03.11.2015 12:00 7,0 C 100 % 1020,2 hPa 0,0 l/m N 0,00 h 174 W/m 5,2 km/h (1 Bft)
03.11.2015 13:00 8,6 C 100 % 1019,8 hPa 0,0 l/m N 0,50 h 270 W/m 1,9 km/h (1 Bft)
03.11.2015 14:00 11,4 C 95 % 1019,5 hPa 0,0 l/m N 1,00 h 332 W/m 3,5 km/h (1 Bft)
03.11.2015 15:00 13,5 C 79 % 1019,8 hPa 0,0 l/m N-NO 0,08 h 47 W/m 7,2 km/h (2 Bft)
03.11.2015 16:00 9,3 C 84 % 1020,5 hPa 0,0 l/m S-SW 0,00 h 14 W/m 13,7 km/h (3 Bft)
03.11.2015 17:00 6,6 C 90 % 1020,8 hPa 0,0 l/m S 0,00 h 0 W/m 9,4 km/h (2 Bft)
03.11.2015 18:00 5,5 C 93 % 1020,5 hPa 0,0 l/m S 0,00 h 0 W/m 2,9 km/h (1 Bft)
03.11.2015 19:00 5,1 C 94 % 1020,2 hPa 0,0 l/m N 0,00 h 0 W/m 0,0 km/h (0 Bft)
03.11.2015 20:00 5,2 C 96 % 1020,6 hPa 0,0 l/m N 0,00 h 0 W/m 0,0 km/h (0 Bft)
03.11.2015 21:00 5,3 C 97 % 1020,8 hPa 0,0 l/m N 0,00 h 0 W/m 0,5 km/h (0 Bft)
03.11.2015 22:00 5,3 C 97 % 1021,1 hPa 0,0 l/m S-SW 0,00 h 0 W/m 0,9 km/h (0 Bft)
03.11.2015 23:00 4,9 C 97 % 1021,5 hPa 0,0 l/m N 0,00 h 0 W/m 0,3 km/h (0 Bft)
04.11.2015 00:00 4,5 C 97 % 1022,1 hPa 0,0 l/m S-SW 0,00 h 0 W/m 1,7 km/h (1 Bft)
04.11.2015 01:00 4,3 C 97 % 1022,6 hPa 0,0 l/m N 0,00 h 0 W/m 0,7 km/h (0 Bft)
04.11.2015 02:00 4,3 C 97 % 1022,8 hPa 0,0 l/m N 0,00 h 0 W/m 0,0 km/h (0 Bft)
04.11.2015 03:00 4,0 C 97 % 1023,0 hPa 0,0 l/m S-SW 0,00 h 0 W/m 2,8 km/h (1 Bft)
04.11.2015 04:00 4,2 C 97 % 1023,0 hPa 0,0 l/m N 0,00 h 0 W/m 0,4 km/h (0 Bft)
04.11.2015 05:00 3,8 C 97 % 1023,3 hPa 0,0 l/m S-SW 0,00 h 0 W/m 1,6 km/h (1 Bft)
04.11.2015 06:00 3,4 C 98 % 1023,3 hPa 0,0 l/m N 0,00 h 0 W/m 0,0 km/h (0 Bft)
04.11.2015 07:00 2,7 C 98 % 1023,5 hPa 0,2 l/m N 0,00 h 10 W/m 0,0 km/h (0 Bft)
04.11.2015 08:00 2,5 C 98 % 1023,5 hPa 0,0 l/m N 0,25 h 65 W/m 0,0 km/h (0 Bft)
04.11.2015 09:00 4,2 C 99 % 1023,5 hPa 0,0 l/m N 0,92 h 220 W/m 0,0 km/h (0 Bft)
04.11.2015 10:00 6,4 C 100 % 1023,0 hPa 0,0 l/m S-SW 1,00 h 350 W/m 1,2 km/h (1 Bft)
04.11.2015 11:00 9,0 C 100 % 1022,3 hPa 0,0 l/m N 1,00 h 427 W/m 1,2 km/h (1 Bft)
04.11.2015 12:00 13,0 C 82 % 1021,5 hPa 0,0 l/m S-SW 1,00 h 371 W/m 4,4 km/h (1 Bft)
04.11.2015 13:00 13,8 C 80 % 1021,0 hPa 0,0 l/m S-SW 0,67 h 248 W/m 6,7 km/h (2 Bft)
04.11.2015 14:00 13,6 C 80 % 1020,7 hPa 0,0 l/m S-SW 0,92 h 262 W/m 7,2 km/h (2 Bft)
04.11.2015 15:00 14,3 C 75 % 1020,8 hPa 0,0 l/m S-SW 0,50 h 139 W/m 4,0 km/h (1 Bft)
04.11.2015 16:00 13,0 C 79 % 1020,9 hPa 0,0 l/m N 0,00 h 19 W/m 1,1 km/h (0 Bft)
04.11.2015 17:00 12,0 C 81 % 1021,0 hPa 0,0 l/m N 0,00 h 0 W/m 0,0 km/h (0 Bft)
04.11.2015 18:00 10,8 C 84 % 1021,2 hPa 0,0 l/m N 0,00 h 0 W/m 0,0 km/h (0 Bft)
04.11.2015 19:00 9,6 C 87 % 1021,2 hPa 0,0 l/m N 0,00 h 0 W/m 0,0 km/h (0 Bft)
04.11.2015 20:00 8,8 C 89 % 1021,1 hPa 0,0 l/m N 0,00 h 0 W/m 0,0 km/h (0 Bft)
04.11.2015 21:00 8,2 C 90 % 1021,3 hPa 0,0 l/m N 0,00 h 0 W/m 0,0 km/h (0 Bft)
04.11.2015 22:00 7,4 C 91 % 1021,3 hPa 0,0 l/m N 0,00 h 0 W/m 0,0 km/h (0 Bft)
04.11.2015 23:00 6,4 C 91 % 1021,1 hPa 0,0 l/m N 0,00 h 0 W/m 0,0 km/h (0 Bft)
05.11.2015 00:00 5,3 C 92 % 1021,1 hPa 0,0 l/m N 0,00 h 0 W/m 0,0 km/h (0 Bft)
05.11.2015 01:00 4,5 C 92 % 1021,5 hPa 0,0 l/m N 0,00 h 0 W/m 0,0 km/h (0 Bft)
05.11.2015 02:00 3,7 C 93 % 1021,7 hPa 0,0 l/m N 0,00 h 0 W/m 0,0 km/h (0 Bft)
05.11.2015 03:00 3,2 C 94 % 1021,8 hPa 0,0 l/m N 0,00 h 0 W/m 0,0 km/h (0 Bft)
05.11.2015 04:00 2,9 C 94 % 1022,0 hPa 0,0 l/m N 0,00 h 0 W/m 0,0 km/h (0 Bft)
05.11.2015 05:00 2,6 C 95 % 1022,3 hPa 0,0 l/m N 0,00 h 0 W/m 0,0 km/h (0 Bft)
05.11.2015 06:00 2,9 C 96 % 1022,4 hPa 0,0 l/m N 0,00 h 0 W/m 0,0 km/h (0 Bft)
05.11.2015 07:00 2,8 C 96 % 1022,7 hPa 0,0 l/m N 0,00 h 9 W/m 0,0 km/h (0 Bft)
05.11.2015 08:00 2,9 C 96 % 1023,0 hPa 0,0 l/m N 0,17 h 61 W/m 0,0 km/h (0 Bft)
05.11.2015 09:00 4,5 C 98 % 1022,9 hPa 0,0 l/m N 1,00 h 220 W/m 0,4 km/h (0 Bft)
05.11.2015 10:00 7,3 C 99 % 1022,7 hPa 0,0 l/m S-SW 1,00 h 320 W/m 4,3 km/h (1 Bft)
05.11.2015 11:00 10,0 C 99 % 1022,2 hPa 0,0 l/m S-SW 1,00 h 410 W/m 5,2 km/h (1 Bft)
05.11.2015 12:00 12,6 C 87 % 1021,4 hPa 0,0 l/m S-SW 1,00 h 424 W/m 2,8 km/h (1 Bft)
05.11.2015 13:00 14,3 C 79 % 1021,0 hPa 0,0 l/m N 1,00 h 393 W/m 1,3 km/h (1 Bft)
05.11.2015 14:00 15,9 C 71 % 1020,6 hPa 0,0 l/m N 1,00 h 311 W/m 1,9 km/h (1 Bft)
05.11.2015 15:00 17,5 C 63 % 1020,4 hPa 0,0 l/m S-SW 1,00 h 176 W/m 1,7 km/h (1 Bft)
05.11.2015 16:00 15,9 C 69 % 1020,4 hPa 0,0 l/m N 0,17 h 26 W/m 0,0 km/h (0 Bft)
05.11.2015 17:00 12,4 C 78 % 1020,8 hPa 0,0 l/m N 0,00 h 0 W/m 0,0 km/h (0 Bft)
05.11.2015 18:00 10,1 C 84 % 1021,3 hPa 0,0 l/m N 0,00 h 0 W/m 0,0 km/h (0 Bft)
05.11.2015 19:00 8,6 C 87 % 1021,6 hPa 0,0 l/m N 0,00 h 0 W/m 0,0 km/h (0 Bft)
05.11.2015 20:00 7,5 C 89 % 1021,9 hPa 0,0 l/m N 0,00 h 0 W/m 0,0 km/h (0 Bft)
05.11.2015 21:00 6,6 C 90 % 1021,8 hPa 0,0 l/m N 0,00 h 0 W/m 0,0 km/h (0 Bft)
05.11.2015 22:00 5,9 C 91 % 1021,9 hPa 0,0 l/m N 0,00 h 0 W/m 0,0 km/h (0 Bft)
05.11.2015 23:00 5,2 C 92 % 1022,0 hPa 0,0 l/m N 0,00 h 0 W/m 0,0 km/h (0 Bft)
06.11.2015 00:00 4,8 C 94 % 1022,1 hPa 0,0 l/m N 0,00 h 0 W/m 0,0 km/h (0 Bft)
06.11.2015 01:00 4,6 C 94 % 1022,6 hPa 0,0 l/m N 0,00 h 0 W/m 0,0 km/h (0 Bft)
06.11.2015 02:00 4,3 C 95 % 1023,1 hPa 0,0 l/m N 0,00 h 0 W/m 0,0 km/h (0 Bft)
06.11.2015 03:00 4,5 C 96 % 1023,3 hPa 0,0 l/m S-SW 0,00 h 0 W/m 1,2 km/h (1 Bft)
06.11.2015 04:00 4,9 C 97 % 1023,5 hPa 0,0 l/m N 0,00 h 0 W/m 1,2 km/h (1 Bft)
06.11.2015 05:00 5,6 C 97 % 1023,7 hPa 0,0 l/m S-SW 0,00 h 0 W/m 2,7 km/h (1 Bft)
06.11.2015 06:00 6,4 C 98 % 1023,7 hPa 0,0 l/m S-SW 0,00 h 0 W/m 2,0 km/h (1 Bft)
06.11.2015 07:00 6,5 C 98 % 1024,1 hPa 0,0 l/m N 0,00 h 11 W/m 0,0 km/h (0 Bft)
06.11.2015 08:00 6,8 C 98 % 1024,4 hPa 0,0 l/m N 0,00 h 46 W/m 0,0 km/h (0 Bft)
06.11.2015 09:00 8,1 C 99 % 1024,6 hPa 0,0 l/m S-SW 0,00 h 115 W/m 4,1 km/h (1 Bft)
06.11.2015 10:00 9,7 C 99 % 1024,5 hPa 0,0 l/m S-SW 0,42 h 264 W/m 6,7 km/h (2 Bft)
06.11.2015 11:00 12,0 C 96 % 1024,5 hPa 0,0 l/m S-SO 0,33 h 267 W/m 9,4 km/h (2 Bft)
06.11.2015 12:00 14,1 C 83 % 1024,0 hPa 0,0 l/m S 0,50 h 318 W/m 12,1 km/h (2 Bft)
06.11.2015 13:00 15,5 C 77 % 1023,5 hPa 0,0 l/m S-SW 0,75 h 265 W/m 11,4 km/h (2 Bft)
06.11.2015 14:00 16,2 C 74 % 1023,6 hPa 0,0 l/m SW 0,50 h 221 W/m 13,8 km/h (3 Bft)
06.11.2015 15:00 16,7 C 69 % 1023,6 hPa 0,0 l/m W-SW 0,50 h 136 W/m 18,0 km/h (3 Bft)
06.11.2015 16:00 15,7 C 72 % 1024,1 hPa 0,0 l/m W-SW 0,58 h 35 W/m 11,4 km/h (2 Bft)
06.11.2015 17:00 14,6 C 77 % 1024,7 hPa 0,0 l/m W-SW 0,00 h 0 W/m 8,0 km/h (2 Bft)
06.11.2015 18:00 13,2 C 81 % 1025,3 hPa 0,0 l/m W-SW 0,00 h 0 W/m 4,9 km/h (1 Bft)
06.11.2015 19:00 12,5 C 86 % 1025,4 hPa 0,0 l/m W-SW 0,00 h 0 W/m 7,5 km/h (2 Bft)
06.11.2015 20:00 11,9 C 87 % 1025,8 hPa 0,0 l/m W-SW 0,00 h 0 W/m 7,8 km/h (2 Bft)
06.11.2015 21:00 11,4 C 85 % 1025,9 hPa 0,0 l/m N 0,00 h 0 W/m 1,1 km/h (0 Bft)
06.11.2015 22:00 10,3 C 88 % 1026,1 hPa 0,0 l/m N 0,00 h 0 W/m 0,7 km/h (0 Bft)
06.11.2015 23:00 9,7 C 90 % 1026,3 hPa 0,0 l/m W-SW 0,00 h 0 W/m 2,4 km/h (1 Bft)
07.11.2015 00:00 9,3 C 92 % 1026,1 hPa 0,0 l/m W-SW 0,00 h 0 W/m 1,5 km/h (1 Bft)
07.11.2015 01:00 9,4 C 94 % 1026,0 hPa 0,0 l/m SW 0,00 h 0 W/m 1,9 km/h (1 Bft)
07.11.2015 02:00 9,8 C 95 % 1025,9 hPa 0,0 l/m N 0,00 h 0 W/m 1,1 km/h (0 Bft)
07.11.2015 03:00 10,3 C 95 % 1025,8 hPa 0,0 l/m SW 0,00 h 0 W/m 2,8 km/h (1 Bft)
07.11.2015 04:00 10,6 C 96 % 1025,8 hPa 0,8 l/m SW 0,00 h 0 W/m 0,9 km/h (0 Bft)
07.11.2015 05:00 10,6 C 96 % 1025,5 hPa 0,2 l/m S 0,00 h 0 W/m 12,0 km/h (2 Bft)
07.11.2015 06:00 10,2 C 96 % 1025,9 hPa 0,0 l/m S-SO 0,00 h 0 W/m 3,8 km/h (1 Bft)
07.11.2015 07:00 10,3 C 97 % 1026,6 hPa 0,0 l/m S-SO 0,25 h 29 W/m 1,5 km/h (1 Bft)
07.11.2015 08:00 10,5 C 97 % 1027,2 hPa 0,0 l/m S-SO 0,00 h 44 W/m 5,2 km/h (1 Bft)
07.11.2015 09:00 10,9 C 97 % 1027,3 hPa 0,0 l/m S 0,00 h 62 W/m 8,3 km/h (2 Bft)
07.11.2015 10:00 11,4 C 95 % 1027,2 hPa 0,0 l/m S 0,00 h 103 W/m 10,2 km/h (2 Bft)
07.11.2015 11:00 13,1 C 92 % 1026,3 hPa 0,0 l/m S-SW 0,75 h 358 W/m 11,8 km/h (2 Bft)
07.11.2015 12:00 15,7 C 86 % 1025,6 hPa 0,0 l/m S-SW 1,00 h 416 W/m 10,6 km/h (2 Bft)
07.11.2015 13:00 17,4 C 81 % 1025,3 hPa 0,0 l/m S 1,00 h 380 W/m 4,1 km/h (1 Bft)
07.11.2015 14:00 19,0 C 77 % 1025,1 hPa 0,2 l/m S 0,92 h 292 W/m 4,1 km/h (1 Bft)
07.11.2015 15:00 20,4 C 73 % 1025,0 hPa 0,0 l/m S 1,00 h 164 W/m 6,8 km/h (2 Bft)
07.11.2015 16:00 18,8 C 76 % 1025,2 hPa 0,0 l/m S-SW 0,25 h 21 W/m 3,5 km/h (1 Bft)
07.11.2015 17:00 16,3 C 82 % 1025,5 hPa 0,0 l/m N 0,00 h 0 W/m 0,3 km/h (0 Bft)
07.11.2015 18:00 14,5 C 86 % 1026,1 hPa 0,0 l/m N 0,00 h 0 W/m 0,7 km/h (0 Bft)
07.11.2015 19:00 13,3 C 89 % 1026,4 hPa 0,0 l/m S-SW 0,00 h 0 W/m 2,4 km/h (1 Bft)
07.11.2015 20:00 12,4 C 90 % 1026,6 hPa 0,0 l/m N 0,00 h 0 W/m 0,0 km/h (0 Bft)
07.11.2015 21:00 11,6 C 91 % 1026,9 hPa 0,0 l/m N 0,00 h 0 W/m 0,4 km/h (0 Bft)
07.11.2015 22:00 11,0 C 92 % 1027,0 hPa 0,0 l/m S-SW 0,00 h 0 W/m 1,9 km/h (1 Bft)
07.11.2015 23:00 11,0 C 94 % 1027,1 hPa 0,0 l/m S-SW 0,00 h 0 W/m 1,5 km/h (1 Bft)
08.11.2015 00:00 10,4 C 93 % 1027,5 hPa 0,0 l/m N 0,00 h 0 W/m 0,0 km/h (0 Bft)
08.11.2015 01:00 9,5 C 93 % 1027,5 hPa 0,0 l/m N 0,00 h 0 W/m 0,0 km/h (0 Bft)
08.11.2015 02:00 8,9 C 94 % 1028,3 hPa 0,0 l/m N 0,00 h 0 W/m 0,0 km/h (0 Bft)
08.11.2015 03:00 9,0 C 95 % 1028,8 hPa 0,0 l/m N 0,00 h 0 W/m 0,0 km/h (0 Bft)
08.11.2015 04:00 8,5 C 95 % 1028,8 hPa 0,0 l/m N 0,00 h 0 W/m 0,0 km/h (0 Bft)
08.11.2015 05:00 7,8 C 95 % 1028,9 hPa 0,0 l/m N 0,00 h 0 W/m 0,0 km/h (0 Bft)
08.11.2015 06:00 7,2 C 95 % 1028,6 hPa 0,0 l/m N 0,00 h 0 W/m 0,0 km/h (0 Bft)
08.11.2015 07:00 6,8 C 95 % 1029,0 hPa 0,0 l/m N 0,00 h 10 W/m 0,0 km/h (0 Bft)
08.11.2015 08:00 7,3 C 97 % 1029,5 hPa 0,0 l/m N 0,17 h 51 W/m 0,0 km/h (0 Bft)
08.11.2015 09:00 9,6 C 99 % 1029,2 hPa 0,0 l/m S-SW 0,58 h 181 W/m 0,5 km/h (0 Bft)
08.11.2015 10:00 11,3 C 99 % 1029,1 hPa 0,0 l/m N 0,83 h 262 W/m 0,0 km/h (0 Bft)
08.11.2015 11:00 13,7 C 90 % 1028,4 hPa 0,0 l/m S-SW 1,00 h 362 W/m 1,5 km/h (1 Bft)
08.11.2015 12:00 16,8 C 76 % 1027,7 hPa 0,0 l/m S-SW 1,00 h 397 W/m 2,5 km/h (1 Bft)
08.11.2015 13:00 18,5 C 71 % 1026,8 hPa 0,0 l/m O-SO 1,00 h 392 W/m 7,9 km/h (2 Bft)
08.11.2015 14:00 19,7 C 69 % 1025,9 hPa 0,0 l/m O-SO 1,00 h 299 W/m 4,5 km/h (1 Bft)
08.11.2015 15:00 19,1 C 69 % 1025,7 hPa 0,0 l/m N 0,75 h 140 W/m 2,5 km/h (1 Bft)
08.11.2015 16:00 17,6 C 75 % 1025,4 hPa 0,0 l/m N 0,25 h 23 W/m 1,1 km/h (0 Bft)
08.11.2015 17:00 15,9 C 80 % 1025,3 hPa 0,0 l/m O-SO 0,00 h 5 W/m 1,1 km/h (0 Bft)
08.11.2015 18:00 14,2 C 84 % 1025,5 hPa 0,0 l/m N 0,00 h 0 W/m 0,3 km/h (0 Bft)
08.11.2015 19:00 12,6 C 88 % 1025,6 hPa 0,0 l/m O-SO 0,00 h 0 W/m 0,8 km/h (0 Bft)
08.11.2015 20:00 11,2 C 90 % 1025,3 hPa 0,0 l/m N 0,00 h 0 W/m 0,0 km/h (0 Bft)
08.11.2015 21:00 10,2 C 91 % 1024,9 hPa 0,0 l/m O-SO 0,00 h 0 W/m 0,7 km/h (0 Bft)
08.11.2015 22:00 9,2 C 92 % 1025,1 hPa 0,0 l/m O-SO 0,00 h 0 W/m 0,4 km/h (0 Bft)
08.11.2015 23:00 8,5 C 93 % 1024,9 hPa 0,0 l/m O-SO 0,00 h 0 W/m 1,9 km/h (1 Bft)
Min-Datum _ 03.11.15 05.11.15 03.11.15 - - - - 02.11.15
_ Min-Zeit 08:05 15:10 13:55 - - - - 00:00
Minimum _ 0,2 C 62 % 1019,4 hPa - - - - 0,0 km/h (0 Bft)
Max-Datum _ 07.11.15 02.11.15 08.11.15 07.11.15 - 02.11.15 06.11.15 06.11.15
_ Max-Zeit 15:20 11:20 08:30 04:40 - 12:25 11:10 15:20
Maximum _ 20,6 C 100 % 1029,6 hPa 0,8 l/m - 0,08 h 533 W/m 27,4 km/h
W-SW (4 Bft)
Durchschnitt _ 8,5 C 91 % 1024,3 hPa #1,8 l/m S-SW #36:25 h 191 W/m 2,4 km/h (1 Bft)